createdAt,value
2023-12-18T00:01:03.292Z,7.04
2023-12-18T00:03:42.785Z,7.03
2023-12-18T00:06:09.607Z,7.01
2023-12-18T00:08:36.348Z,6.98
2023-12-18T00:11:03.265Z,6.95
2023-12-18T00:13:30.114Z,6.91
2023-12-18T00:15:56.841Z,6.86
2023-12-18T00:18:23.689Z,6.83
2023-12-18T00:20:53.508Z,6.80
2023-12-18T00:23:20.516Z,6.76
2023-12-18T00:25:47.233Z,6.72
2023-12-18T00:28:13.977Z,6.68
2023-12-18T00:30:40.799Z,6.65
2023-12-18T00:33:07.718Z,6.62
2023-12-18T00:35:34.549Z,6.58
2023-12-18T00:38:01.374Z,6.54
2023-12-18T00:40:28.186Z,6.51
2023-12-18T00:42:54.997Z,6.47
2023-12-18T00:45:21.792Z,6.45
2023-12-18T00:47:48.631Z,6.43
2023-12-18T00:50:15.619Z,6.40
2023-12-18T00:52:42.449Z,6.38
2023-12-18T00:55:09.517Z,6.36
2023-12-18T00:57:36.303Z,6.33
2023-12-18T01:00:04.951Z,6.30
2023-12-18T01:02:31.965Z,6.28
2023-12-18T01:04:58.744Z,6.26
2023-12-18T01:07:25.542Z,6.22
2023-12-18T01:09:56.858Z,6.19
2023-12-18T01:12:23.640Z,6.15
2023-12-18T01:14:51.082Z,6.12
2023-12-18T01:17:22.497Z,6.09
2023-12-18T01:19:53.723Z,6.06
2023-12-18T01:22:20.816Z,6.05
2023-12-18T01:24:47.597Z,6.03
2023-12-18T01:27:14.385Z,6.03
2023-12-18T01:29:41.525Z,6.01
2023-12-18T01:32:11.473Z,5.99
2023-12-18T01:34:38.956Z,5.98
2023-12-18T01:37:06.277Z,5.95
2023-12-18T01:39:33.057Z,5.93
2023-12-18T01:42:00.130Z,5.91
2023-12-18T01:44:27.303Z,5.90
2023-12-18T01:46:56.137Z,5.87
2023-12-18T01:49:24.127Z,5.85
2023-12-18T01:51:51.056Z,5.82
2023-12-18T01:54:22.965Z,5.79
2023-12-18T01:56:55.584Z,5.78
2023-12-18T01:59:24.328Z,5.74
2023-12-18T02:01:52.178Z,5.70
2023-12-18T02:04:20.281Z,5.67
2023-12-18T02:06:48.255Z,5.63
2023-12-18T02:09:16.189Z,5.59
2023-12-18T02:11:46.184Z,5.56
2023-12-18T02:14:13.720Z,5.53
2023-12-18T02:16:41.424Z,5.51
2023-12-18T02:19:24.537Z,5.47
2023-12-18T02:21:51.671Z,5.45
2023-12-18T02:24:19.349Z,5.43
2023-12-18T02:26:47.587Z,5.41
2023-12-18T02:29:14.935Z,5.39
2023-12-18T02:31:42.917Z,5.36
2023-12-18T02:34:09.994Z,5.34
2023-12-18T02:36:36.931Z,5.32
2023-12-18T02:39:03.768Z,5.30
2023-12-18T02:41:30.570Z,5.27
2023-12-18T02:43:57.801Z,5.26
2023-12-18T02:46:24.532Z,5.25
2023-12-18T02:48:51.407Z,5.24
2023-12-18T02:51:18.196Z,5.22
2023-12-18T02:53:44.952Z,5.21
2023-12-18T02:56:13.697Z,5.19
2023-12-18T02:58:41.283Z,5.18
2023-12-18T03:01:08.514Z,5.16
2023-12-18T03:03:35.447Z,5.14
2023-12-18T03:06:02.575Z,5.12
2023-12-18T03:08:29.527Z,5.12
2023-12-18T03:10:56.360Z,5.11
2023-12-18T03:13:23.190Z,5.11
2023-12-18T03:15:50.098Z,5.09
2023-12-18T03:18:17.056Z,5.08
2023-12-18T03:20:43.853Z,5.07
2023-12-18T03:23:10.591Z,5.05
2023-12-18T03:25:37.419Z,5.03
2023-12-18T03:28:04.357Z,5.03
2023-12-18T03:30:31.194Z,5.02
2023-12-18T03:33:00.144Z,5.02
2023-12-18T03:35:26.926Z,5.01
2023-12-18T03:37:53.702Z,4.99
2023-12-18T03:40:20.432Z,4.98
2023-12-18T03:42:47.186Z,4.97
2023-12-18T03:45:14.147Z,4.96
2023-12-18T03:47:41.385Z,4.95
2023-12-18T03:50:08.613Z,4.94
2023-12-18T03:52:35.623Z,4.95
2023-12-18T03:55:02.686Z,4.95
2023-12-18T03:57:29.465Z,4.96
2023-12-18T03:59:58.193Z,4.96
2023-12-18T04:02:25.495Z,4.98
2023-12-18T04:04:53.256Z,4.98
2023-12-18T04:07:20.380Z,4.99
2023-12-18T04:09:47.296Z,4.99
2023-12-18T04:12:14.316Z,4.99
2023-12-18T04:14:43.566Z,4.99
2023-12-18T04:17:10.288Z,4.98
2023-12-18T04:19:37.088Z,4.99
2023-12-18T04:22:04.136Z,4.98
2023-12-18T04:24:30.909Z,4.96
2023-12-18T04:26:57.693Z,4.95
2023-12-18T04:29:24.380Z,4.95
2023-12-18T04:31:52.007Z,4.96
2023-12-18T04:34:18.739Z,4.96
2023-12-18T04:36:45.699Z,4.95
2023-12-18T04:39:12.742Z,4.94
2023-12-18T04:41:39.573Z,4.93
2023-12-18T04:44:06.470Z,4.92
2023-12-18T04:46:37.138Z,4.91
2023-12-18T04:49:05.760Z,4.91
2023-12-18T04:51:33.096Z,4.91
2023-12-18T04:54:00.561Z,4.92
2023-12-18T04:56:27.504Z,4.93
2023-12-18T04:58:54.328Z,4.93
2023-12-18T05:01:21.313Z,4.94
2023-12-18T05:03:48.191Z,4.94
2023-12-18T05:06:24.487Z,4.94
2023-12-18T05:08:51.759Z,4.95
2023-12-18T05:11:20.700Z,4.96
2023-12-18T05:13:47.689Z,4.96
2023-12-18T05:16:15.856Z,4.96
2023-12-18T05:18:43.348Z,4.96
2023-12-18T05:21:11.442Z,4.95
2023-12-18T05:23:39.468Z,4.95
2023-12-18T05:26:06.542Z,4.95
2023-12-18T05:28:34.512Z,4.96
2023-12-18T05:31:01.346Z,4.96
2023-12-18T05:33:28.180Z,4.96
2023-12-18T05:35:54.945Z,4.95
2023-12-18T05:38:21.691Z,4.94
2023-12-18T05:40:48.525Z,4.95
2023-12-18T05:43:15.270Z,4.94
2023-12-18T05:45:42.073Z,4.92
2023-12-18T05:48:08.998Z,4.91
2023-12-18T05:50:35.925Z,4.88
2023-12-18T05:53:02.742Z,4.88
2023-12-18T05:55:29.477Z,4.89
2023-12-18T05:57:56.277Z,4.87
2023-12-18T06:00:23.152Z,4.87
2023-12-18T06:02:49.918Z,4.86
2023-12-18T06:05:16.805Z,4.84
2023-12-18T06:07:43.561Z,4.83
2023-12-18T06:10:10.415Z,4.82
2023-12-18T06:12:37.839Z,4.81
2023-12-18T06:15:06.220Z,4.80
2023-12-18T06:17:33.079Z,4.78
2023-12-18T06:19:59.947Z,4.77
2023-12-18T06:22:26.834Z,4.75
2023-12-18T06:24:53.698Z,4.74
2023-12-18T06:27:20.644Z,4.72
2023-12-18T06:29:47.636Z,4.71
2023-12-18T06:32:15.002Z,4.68
2023-12-18T06:34:43.526Z,4.66
2023-12-18T06:37:10.555Z,4.63
2023-12-18T06:39:37.343Z,4.62
2023-12-18T06:42:04.500Z,4.60
2023-12-18T06:44:31.288Z,4.59
2023-12-18T06:46:58.130Z,4.58
2023-12-18T06:49:25.045Z,4.57
2023-12-18T06:51:52.113Z,4.56
2023-12-18T06:54:18.974Z,4.55
2023-12-18T06:56:46.413Z,4.55
2023-12-18T06:59:13.262Z,4.55
2023-12-18T07:01:40.155Z,4.56
2023-12-18T07:04:07.046Z,4.57
2023-12-18T07:06:34.414Z,4.59
2023-12-18T07:09:01.279Z,4.61
2023-12-18T07:11:28.174Z,4.65
2023-12-18T07:13:54.924Z,4.70
2023-12-18T07:16:22.981Z,4.75
2023-12-18T07:18:50.015Z,4.78
2023-12-18T07:21:17.113Z,4.81
2023-12-18T07:23:43.955Z,4.85
2023-12-18T07:26:14.004Z,4.90
2023-12-18T07:28:41.792Z,4.93
2023-12-18T07:31:09.257Z,4.97
2023-12-18T07:33:36.150Z,5.02
2023-12-18T07:36:03.685Z,5.06
2023-12-18T07:38:30.885Z,5.11
2023-12-18T07:40:57.755Z,5.16
2023-12-18T07:43:24.536Z,5.21
2023-12-18T07:45:51.362Z,5.27
2023-12-18T07:48:22.065Z,5.32
2023-12-18T07:50:48.994Z,5.39
2023-12-18T07:53:15.919Z,5.44
2023-12-18T07:55:42.916Z,5.49
2023-12-18T07:58:09.692Z,5.67
2023-12-18T08:00:36.668Z,6.04
2023-12-18T08:03:03.993Z,6.35
2023-12-18T08:05:31.496Z,6.63
2023-12-18T08:07:58.383Z,6.88
2023-12-18T08:10:25.315Z,7.10
2023-12-18T08:12:52.324Z,7.28
2023-12-18T08:15:19.332Z,7.33
2023-12-18T08:17:46.205Z,7.33
2023-12-18T08:20:14.195Z,7.33
2023-12-18T08:22:41.126Z,7.31
2023-12-18T08:25:08.376Z,7.29
2023-12-18T08:27:35.566Z,7.28
2023-12-18T08:30:09.574Z,7.28
2023-12-18T08:32:36.328Z,7.30
2023-12-18T08:35:03.283Z,7.32
2023-12-18T08:37:30.090Z,7.33
2023-12-18T08:39:56.942Z,7.34
2023-12-18T08:42:23.881Z,7.35
2023-12-18T08:44:50.924Z,7.37
2023-12-18T08:47:17.993Z,7.39
2023-12-18T08:49:44.797Z,7.41
2023-12-18T08:52:11.673Z,7.44
2023-12-18T08:54:38.476Z,7.45
2023-12-18T08:57:05.257Z,7.49
2023-12-18T08:59:32.035Z,7.54
2023-12-18T09:01:58.831Z,7.59
2023-12-18T09:04:26.100Z,7.64
2023-12-18T09:06:53.175Z,7.67
2023-12-18T09:09:21.393Z,7.72
2023-12-18T09:11:48.307Z,7.78
2023-12-18T09:14:15.074Z,7.85
2023-12-18T09:16:41.895Z,7.91
2023-12-18T09:19:09.087Z,7.98
2023-12-18T09:21:36.058Z,8.05
2023-12-18T09:24:02.953Z,8.11
2023-12-18T09:26:29.773Z,8.18
2023-12-18T09:28:56.862Z,8.25
2023-12-18T09:31:24.146Z,8.33
2023-12-18T09:33:51.076Z,8.42
2023-12-18T09:36:18.617Z,8.50
2023-12-18T09:38:45.485Z,8.60
2023-12-18T09:41:21.286Z,8.69
2023-12-18T09:43:50.793Z,8.79
2023-12-18T09:46:21.492Z,8.89
2023-12-18T09:48:49.478Z,8.98
2023-12-18T09:51:24.503Z,9.06
2023-12-18T09:53:53.189Z,9.15
2023-12-18T09:56:24.233Z,9.30
2023-12-18T09:58:55.541Z,9.47
2023-12-18T10:01:23.702Z,9.63
2023-12-18T10:03:50.776Z,9.81
2023-12-18T10:06:18.803Z,9.97
2023-12-18T10:08:50.581Z,10.21
2023-12-18T10:11:26.179Z,10.45
2023-12-18T10:13:54.369Z,10.62
2023-12-18T10:16:22.354Z,10.74
2023-12-18T10:18:50.179Z,10.85
2023-12-18T10:21:23.448Z,10.93
2023-12-18T10:23:54.089Z,10.96
2023-12-18T10:26:22.526Z,10.94
2023-12-18T10:28:53.457Z,10.90
2023-12-18T10:31:20.991Z,10.88
2023-12-18T10:33:48.094Z,10.83
2023-12-18T10:36:19.411Z,10.75
2023-12-18T10:38:50.722Z,10.67
2023-12-18T10:41:23.416Z,10.62
2023-12-18T10:43:51.013Z,10.56
2023-12-18T10:46:19.135Z,10.53
2023-12-18T10:48:51.636Z,10.54
2023-12-18T10:51:21.055Z,10.59
2023-12-18T10:53:49.187Z,10.68
2023-12-18T10:56:17.810Z,10.79
2023-12-18T10:58:45.419Z,10.91
2023-12-18T11:01:15.782Z,11.06
2023-12-18T11:03:43.938Z,11.21
2023-12-18T11:06:11.788Z,11.34
2023-12-18T11:08:38.631Z,11.45
2023-12-18T11:11:06.509Z,11.57
2023-12-18T11:13:48.604Z,11.67
2023-12-18T11:16:15.297Z,11.80
2023-12-18T11:19:16.057Z,11.91
2023-12-18T11:21:49.774Z,12.04
2023-12-18T11:24:17.977Z,12.15
2023-12-18T11:26:46.822Z,12.25
2023-12-18T11:29:33.394Z,12.35
2023-12-18T11:32:00.256Z,12.48
2023-12-18T11:34:27.129Z,12.61
2023-12-18T11:36:54.080Z,12.75
2023-12-18T11:39:28.208Z,12.88
2023-12-18T11:41:55.008Z,13.00
2023-12-18T11:44:28.304Z,13.10
2023-12-18T11:46:55.441Z,13.17
2023-12-18T11:49:23.588Z,13.17
2023-12-18T11:51:50.838Z,13.12
2023-12-18T11:54:23.802Z,13.01
2023-12-18T11:56:52.106Z,12.89
2023-12-18T11:59:20.355Z,12.75
2023-12-18T12:01:47.857Z,12.58
2023-12-18T12:04:16.758Z,12.44
2023-12-18T12:06:46.715Z,12.34
2023-12-18T12:09:13.547Z,12.24
2023-12-18T12:11:40.421Z,12.13
2023-12-18T12:14:07.236Z,12.03
2023-12-18T12:16:34.019Z,11.97
2023-12-18T12:19:03.818Z,11.91
2023-12-18T12:21:38.898Z,11.84
2023-12-18T12:24:12.263Z,11.75
2023-12-18T12:26:39.159Z,11.64
2023-12-18T12:29:06.729Z,11.55
2023-12-18T12:31:35.267Z,11.46
2023-12-18T12:34:02.989Z,11.38
2023-12-18T12:36:30.994Z,11.31
2023-12-18T12:38:58.629Z,11.21
2023-12-18T12:41:25.588Z,11.12
2023-12-18T12:43:52.746Z,11.05
2023-12-18T12:46:26.551Z,11.01
2023-12-18T12:48:56.756Z,10.98
2023-12-18T12:51:24.291Z,10.95
2023-12-18T12:53:51.192Z,10.94
2023-12-18T12:56:18.046Z,10.94
2023-12-18T12:58:44.828Z,10.91
2023-12-18T13:01:11.695Z,10.87
2023-12-18T13:03:38.675Z,10.83
2023-12-18T13:06:05.880Z,10.76
2023-12-18T13:08:33.817Z,10.68
2023-12-18T13:11:02.032Z,10.62
2023-12-18T13:13:29.250Z,10.56
2023-12-18T13:15:56.083Z,10.49
2023-12-18T13:18:23.022Z,10.44
2023-12-18T13:20:49.970Z,10.38
2023-12-18T13:23:16.808Z,10.32
2023-12-18T13:25:43.608Z,10.26
2023-12-18T13:28:10.490Z,10.21
2023-12-18T13:30:37.674Z,10.17
2023-12-18T13:33:04.837Z,10.13
2023-12-18T13:35:31.766Z,10.09
2023-12-18T13:37:59.733Z,10.05
2023-12-18T13:40:28.985Z,10.00
2023-12-18T13:42:55.971Z,9.96
2023-12-18T13:45:22.931Z,9.90
2023-12-18T13:47:51.704Z,9.85
2023-12-18T13:50:18.521Z,9.78
2023-12-18T13:52:45.793Z,9.70
2023-12-18T13:55:13.108Z,9.64
2023-12-18T13:57:46.460Z,9.58
2023-12-18T14:00:17.144Z,9.52
2023-12-18T14:02:44.433Z,9.46
2023-12-18T14:05:11.308Z,9.38
2023-12-18T14:07:39.278Z,9.31
2023-12-18T14:10:08.061Z,9.25
2023-12-18T14:12:36.010Z,9.20
2023-12-18T14:15:04.010Z,9.13
2023-12-18T14:17:30.958Z,9.08
2023-12-18T14:20:04.277Z,9.05
2023-12-18T14:22:31.210Z,9.02
2023-12-18T14:24:58.071Z,8.98
2023-12-18T14:27:24.941Z,8.95
2023-12-18T14:29:51.737Z,8.93
2023-12-18T14:32:18.653Z,8.91
2023-12-18T14:34:45.562Z,8.88
2023-12-18T14:37:12.763Z,8.84
2023-12-18T14:39:39.534Z,8.81
2023-12-18T14:42:08.148Z,8.77
2023-12-18T14:44:35.505Z,8.73
2023-12-18T14:47:02.319Z,8.72
2023-12-18T14:49:29.538Z,8.69
2023-12-18T14:51:57.157Z,8.66
2023-12-18T14:54:24.055Z,8.63
2023-12-18T14:56:53.395Z,8.57
2023-12-18T14:59:21.174Z,8.53
2023-12-18T15:01:48.216Z,8.50
2023-12-18T15:04:19.597Z,8.46
2023-12-18T15:06:53.453Z,8.41
2023-12-18T15:09:20.658Z,8.38
2023-12-18T15:11:47.907Z,8.35
2023-12-18T15:14:14.748Z,8.32
2023-12-18T15:16:42.346Z,8.30
2023-12-18T15:19:09.425Z,8.29
2023-12-18T15:21:38.561Z,8.27
2023-12-18T15:24:09.686Z,8.27
2023-12-18T15:26:38.326Z,8.26
2023-12-18T15:29:05.170Z,8.25
2023-12-18T15:31:32.256Z,8.24
2023-12-18T15:34:02.197Z,8.24
2023-12-18T15:36:30.627Z,8.23
2023-12-18T15:38:57.418Z,8.23
2023-12-18T15:41:24.227Z,8.25
2023-12-18T15:43:51.116Z,8.24
2023-12-18T15:46:17.873Z,8.23
2023-12-18T15:48:45.035Z,8.23
2023-12-18T15:51:11.994Z,8.21
2023-12-18T15:53:39.843Z,8.20
2023-12-18T15:56:07.012Z,8.18
2023-12-18T15:58:33.914Z,8.13
2023-12-18T16:01:00.733Z,8.09
2023-12-18T16:03:27.648Z,8.05
2023-12-18T16:05:56.069Z,8.00
2023-12-18T16:08:23.035Z,7.96
2023-12-18T16:10:50.286Z,7.91
2023-12-18T16:13:17.026Z,7.85
2023-12-18T16:15:43.932Z,7.80
2023-12-18T16:18:10.872Z,7.76
2023-12-18T16:20:37.810Z,7.70
2023-12-18T16:23:04.930Z,7.65
2023-12-18T16:25:31.797Z,7.60
2023-12-18T16:27:58.675Z,7.53
2023-12-18T16:30:25.569Z,7.48
2023-12-18T16:32:52.472Z,7.42
2023-12-18T16:35:19.529Z,7.38
2023-12-18T16:37:46.372Z,7.33
2023-12-18T16:40:13.416Z,7.29
2023-12-18T16:42:40.480Z,7.26
2023-12-18T16:45:08.451Z,7.22
2023-12-18T16:47:35.256Z,7.17
2023-12-18T16:50:02.427Z,7.14
2023-12-18T16:52:32.610Z,7.11
2023-12-18T16:55:00.326Z,7.08
2023-12-18T16:57:27.548Z,7.06
2023-12-18T16:59:59.576Z,7.04
2023-12-18T17:02:29.195Z,7.02
2023-12-18T17:04:55.985Z,7.01
2023-12-18T17:07:23.952Z,6.98
2023-12-18T17:09:50.778Z,6.96
2023-12-18T17:12:17.643Z,6.93
2023-12-18T17:14:48.548Z,6.90
2023-12-18T17:17:15.330Z,6.86
2023-12-18T17:19:42.134Z,6.82
2023-12-18T17:22:08.920Z,6.78
2023-12-18T17:24:35.739Z,6.74
2023-12-18T17:27:02.736Z,6.72
2023-12-18T17:29:29.553Z,6.70
2023-12-18T17:31:56.433Z,6.66
2023-12-18T17:34:23.254Z,6.64
2023-12-18T17:36:50.208Z,6.62
2023-12-18T17:39:17.066Z,6.60
2023-12-18T17:41:43.868Z,6.58
2023-12-18T17:44:10.707Z,6.56
2023-12-18T17:46:39.280Z,6.53
2023-12-18T17:49:06.935Z,6.52
2023-12-18T17:51:33.780Z,6.50
2023-12-18T17:54:02.099Z,6.49
2023-12-18T17:56:29.027Z,6.46
2023-12-18T17:58:55.806Z,6.46
2023-12-18T18:01:22.751Z,6.45
2023-12-18T18:03:49.635Z,6.44
2023-12-18T18:06:19.889Z,6.41
2023-12-18T18:08:47.326Z,6.39
2023-12-18T18:11:14.784Z,6.37
2023-12-18T18:13:41.523Z,6.35
2023-12-18T18:16:08.439Z,6.34
2023-12-18T18:18:35.339Z,6.31
2023-12-18T18:21:02.183Z,6.29
2023-12-18T18:23:28.970Z,6.26
2023-12-18T18:25:55.920Z,6.23
2023-12-18T18:28:22.752Z,6.21
2023-12-18T18:30:50.725Z,6.19
2023-12-18T18:33:17.880Z,6.17
2023-12-18T18:35:45.414Z,6.16
2023-12-18T18:38:12.499Z,6.15
2023-12-18T18:40:41.668Z,6.14
2023-12-18T18:43:08.419Z,6.12
2023-12-18T18:45:36.213Z,6.11
2023-12-18T18:48:04.303Z,6.09
2023-12-18T18:50:31.108Z,6.06
2023-12-18T18:52:57.875Z,6.03
2023-12-18T18:55:24.757Z,6.00
2023-12-18T18:57:52.011Z,5.96
2023-12-18T19:00:20.463Z,5.92
2023-12-18T19:02:47.282Z,5.89
2023-12-18T19:05:16.339Z,5.87
2023-12-18T19:07:43.462Z,5.84
2023-12-18T19:10:10.672Z,5.82
2023-12-18T19:12:41.958Z,5.78
2023-12-18T19:15:08.780Z,5.75
2023-12-18T19:17:36.524Z,5.73
2023-12-18T19:20:03.951Z,5.72
2023-12-18T19:22:30.846Z,5.71
2023-12-18T19:24:57.716Z,5.71
2023-12-18T19:27:24.564Z,5.71
2023-12-18T19:29:51.457Z,5.69
2023-12-18T19:32:18.685Z,5.68
2023-12-18T19:34:46.378Z,5.67
2023-12-18T19:37:15.397Z,5.66
2023-12-18T19:39:42.170Z,5.65
2023-12-18T19:42:08.952Z,5.65
2023-12-18T19:44:36.139Z,5.64
2023-12-18T19:47:03.215Z,5.64
2023-12-18T19:49:30.062Z,5.64
2023-12-18T19:51:57.086Z,5.64
2023-12-18T19:54:24.449Z,5.63
2023-12-18T19:56:51.629Z,5.62
2023-12-18T19:59:18.418Z,5.60
2023-12-18T20:01:47.086Z,5.59
2023-12-18T20:04:16.377Z,5.58
2023-12-18T20:06:45.090Z,5.56
2023-12-18T20:09:11.949Z,5.54
2023-12-18T20:11:39.392Z,5.54
2023-12-18T20:14:06.205Z,5.57
2023-12-18T20:16:33.310Z,5.59
2023-12-18T20:19:00.345Z,5.61
2023-12-18T20:21:27.386Z,5.64
2023-12-18T20:23:54.463Z,5.66
2023-12-18T20:26:21.274Z,5.68
2023-12-18T20:28:48.064Z,5.69
2023-12-18T20:31:14.937Z,5.71
2023-12-18T20:33:42.070Z,5.71
2023-12-18T20:36:08.949Z,5.72
2023-12-18T20:38:35.800Z,5.73
2023-12-18T20:41:02.651Z,5.73
2023-12-18T20:43:30.211Z,5.75
2023-12-18T20:46:05.634Z,5.76
2023-12-18T20:48:35.013Z,5.76
2023-12-18T20:51:01.910Z,5.76
2023-12-18T20:53:31.601Z,5.76
2023-12-18T20:56:00.587Z,5.76
2023-12-18T20:58:28.164Z,5.76
2023-12-18T21:00:55.174Z,5.76
2023-12-18T21:03:22.230Z,5.76
2023-12-18T21:05:49.270Z,5.75
2023-12-18T21:08:17.543Z,5.76
2023-12-18T21:10:44.871Z,5.75
2023-12-18T21:13:16.078Z,5.76
2023-12-18T21:15:43.924Z,5.75
2023-12-18T21:18:10.939Z,5.75
2023-12-18T21:20:37.796Z,5.75
2023-12-18T21:23:05.128Z,5.74
2023-12-18T21:25:32.433Z,5.74
2023-12-18T21:28:00.486Z,5.74
2023-12-18T21:30:28.160Z,5.74
2023-12-18T21:32:56.097Z,5.74
2023-12-18T21:35:23.189Z,5.75
2023-12-18T21:37:50.031Z,5.76
2023-12-18T21:40:17.297Z,5.78
2023-12-18T21:42:45.082Z,5.78
2023-12-18T21:45:12.244Z,5.76
2023-12-18T21:47:39.952Z,5.76
2023-12-18T21:50:07.456Z,5.74
2023-12-18T21:52:34.366Z,5.73
2023-12-18T21:55:02.436Z,5.72
2023-12-18T21:57:29.259Z,5.70
2023-12-18T21:59:56.215Z,5.68
2023-12-18T22:02:23.029Z,5.68
2023-12-18T22:04:49.757Z,5.67
2023-12-18T22:07:16.620Z,5.67
2023-12-18T22:09:43.482Z,5.67
2023-12-18T22:12:10.829Z,5.68
2023-12-18T22:14:37.737Z,5.70
2023-12-18T22:17:05.037Z,5.71
2023-12-18T22:19:31.928Z,5.70
2023-12-18T22:21:58.911Z,5.70
2023-12-18T22:24:26.385Z,5.71
2023-12-18T22:26:53.196Z,5.71
2023-12-18T22:29:20.023Z,5.72
2023-12-18T22:31:47.007Z,5.74
2023-12-18T22:34:14.145Z,5.75
2023-12-18T22:36:41.098Z,5.77
2023-12-18T22:39:11.857Z,5.79
2023-12-18T22:41:41.001Z,5.82
2023-12-18T22:44:08.114Z,5.85
2023-12-18T22:46:35.056Z,5.91
2023-12-18T22:49:02.283Z,5.95
2023-12-18T22:51:29.196Z,6.00
2023-12-18T22:53:55.947Z,6.03
2023-12-18T22:56:23.953Z,6.08
2023-12-18T22:58:50.749Z,6.12
2023-12-18T23:01:17.680Z,6.17
2023-12-18T23:03:44.614Z,6.21
2023-12-18T23:06:11.351Z,6.25
2023-12-18T23:08:38.148Z,6.30
2023-12-18T23:11:04.912Z,6.35
2023-12-18T23:13:31.660Z,6.38
2023-12-18T23:15:58.447Z,6.43
2023-12-18T23:18:25.377Z,6.49
2023-12-18T23:20:52.396Z,6.55
2023-12-18T23:23:19.169Z,6.59
2023-12-18T23:25:46.136Z,6.65
2023-12-18T23:28:12.860Z,6.69
2023-12-18T23:30:39.701Z,6.74
2023-12-18T23:33:13.064Z,6.78
2023-12-18T23:35:44.649Z,6.81
2023-12-18T23:38:11.396Z,6.84
2023-12-18T23:40:38.618Z,6.87
2023-12-18T23:43:05.451Z,6.91
2023-12-18T23:45:32.519Z,6.95
2023-12-18T23:47:59.379Z,7.00
2023-12-18T23:50:26.199Z,7.03
2023-12-18T23:52:53.072Z,7.07
2023-12-18T23:55:19.873Z,7.10
2023-12-18T23:57:46.715Z,7.13
